Terminal Aerodrome Forecast
Issued by NWS

Home | Current Version | Previous Version | Text Only | Print | Product List | Glossary On
Versions: 1 2 3 4 5 6 7 8 9 10 11 12 13 14 15 16 17 18 19
396
FTUS41 KPBZ 221744
TAFMGW
TAF
KMGW 221744Z 2218/2318 22007KT 3SM -SHRA VCTS BKN050CB
      TEMPO 2218/2222 2SM -TSRA BKN025CB
     FM230500 23006KT 4SM BR OVC025=

USA.gov is the U.S. government's official web portal to all federal, state and local government web resources and services.